Time;durP1;ratioP1;P1;durP2;ratioP2;P2;SDS_P1;SDS_P2;PMS_P1;PMS_P2;Temp;Humidity;BMP_temperature;BMP_pressure;BME280_temperature;BME280_humidity;BME280_pressure;Samples;Min_cycle;Max_cycle;Signal;HPM_P1;HPM_P2
2021/07/20 00:01:23;;;;;;;8.60;5.80;;;;;;;13.66;76.51;100402.34;93034;1214;75088;-62
2021/07/20 00:03:30;;;;;;;8.20;5.80;;;;;;;13.62;76.80;100401.95;93016;1212;81412;-61
2021/07/20 00:05:41;;;;;;;7.90;5.70;;;;;;;13.63;76.76;100398.17;93024;1207;66775;-61
2021/07/20 00:07:49;;;;;;;8.40;5.60;;;;;;;13.63;76.75;100408.19;93051;1208;68436;-62
2021/07/20 00:09:57;;;;;;;11.90;6.00;;;;;;;13.65;76.80;100401.55;93038;1212;84766;-61
2021/07/20 00:12:06;;;;;;;9.10;5.90;;;;;;;13.63;76.77;100408.19;93008;1214;75031;-62
2021/07/20 00:14:13;;;;;;;8.40;5.80;;;;;;;13.63;76.96;100410.91;93029;1208;82485;-61
2021/07/20 00:16:21;;;;;;;9.90;5.50;;;;;;;13.62;77.06;100410.10;93018;1213;67445;-62
2021/07/20 00:18:34;;;;;;;8.60;6.00;;;;;;;13.62;76.96;100410.10;93058;1208;69176;-62
2021/07/20 00:20:43;;;;;;;8.50;6.40;;;;;;;13.62;76.89;100411.97;93053;1208;84905;-57
2021/07/20 00:22:51;;;;;;;9.00;6.20;;;;;;;13.63;77.06;100405.48;93041;1202;75466;-57
2021/07/20 00:24:59;;;;;;;8.90;6.10;;;;;;;13.56;77.00;100405.50;93004;1208;81721;-57
2021/07/20 00:27:08;;;;;;;9.00;5.70;;;;;;;13.49;77.24;100408.20;93027;1208;67802;-57
2021/07/20 00:29:16;;;;;;;10.60;6.80;;;;;;;13.51;77.27;100411.53;93046;1213;68990;-58
2021/07/20 00:31:24;;;;;;;8.20;5.70;;;;;;;13.54;77.19;100405.69;92999;1208;85295;-58
2021/07/20 00:33:31;;;;;;;10.60;6.70;;;;;;;13.50;77.31;100398.19;93044;1208;75317;-58
2021/07/20 00:35:39;;;;;;;9.70;6.50;;;;;;;13.48;77.26;100408.42;93007;1208;81409;-57
2021/07/20 00:37:47;;;;;;;7.80;5.60;;;;;;;13.46;77.28;100402.34;92991;1208;67171;-58
2021/07/20 00:39:55;;;;;;;7.60;5.90;;;;;;;13.41;77.39;100404.84;93026;1214;69581;-60
2021/07/20 00:42:04;;;;;;;9.00;6.10;;;;;;;13.42;77.45;100398.39;93004;1208;86756;-60
2021/07/20 00:44:12;;;;;;;11.00;6.80;;;;;;;13.45;77.46;100400.69;93013;1208;75033;-60
2021/07/20 00:46:20;;;;;;;11.10;6.50;;;;;;;13.43;77.60;100400.07;93029;1208;81276;-60
2021/07/20 00:48:28;;;;;;;7.70;6.20;;;;;;;13.42;77.67;100401.95;93048;1202;67961;-60
2021/07/20 00:50:41;;;;;;;8.10;6.10;;;;;;;13.34;77.76;100402.14;93030;1208;67552;-58
2021/07/20 00:52:49;;;;;;;11.50;5.80;;;;;;;13.32;77.78;100398.78;93015;1208;84594;-58
2021/07/20 00:54:58;;;;;;;8.10;6.10;;;;;;;13.37;77.60;100396.31;93051;1208;75593;-58
2021/07/20 00:57:08;;;;;;;10.00;6.40;;;;;;;13.37;77.75;100395.47;93028;1208;79951;-58
2021/07/20 00:59:17;;;;;;;8.60;5.90;;;;;;;13.32;77.78;100396.06;93085;1214;66674;-58
2021/07/20 01:01:25;;;;;;;8.30;6.20;;;;;;;13.25;77.74;100389.81;93064;1208;69275;-58
2021/07/20 01:03:33;;;;;;;7.80;6.20;;;;;;;13.27;77.75;100385.00;93062;1202;85639;-58
2021/07/20 01:05:41;;;;;;;10.80;5.70;;;;;;;13.24;77.87;100388.13;93032;1208;74028;-59
2021/07/20 01:07:50;;;;;;;6.80;5.40;;;;;;;13.31;77.74;100386.28;93041;1203;81868;-60
2021/07/20 01:10:00;;;;;;;7.20;5.40;;;;;;;13.32;77.88;100389.83;93025;1208;65992;-59
2021/07/20 01:12:11;;;;;;;8.50;5.80;;;;;;;13.33;77.86;100397.75;93013;1208;69229;-60
2021/07/20 01:14:20;;;;;;;8.70;5.80;;;;;;;13.35;77.82;100392.94;93017;1208;85058;-60
2021/07/20 01:16:28;;;;;;;8.30;6.00;;;;;;;13.28;77.75;100383.98;93020;1208;75390;-58
2021/07/20 01:18:38;;;;;;;8.00;6.40;;;;;;;13.24;77.82;100390.03;93005;1207;80339;-58
2021/07/20 01:20:46;;;;;;;10.00;5.60;;;;;;;13.27;77.93;100395.02;93019;1208;67051;-59
2021/07/20 01:23:05;;;;;;;7.00;5.40;;;;;;;13.27;77.95;100385.00;93015;1208;68917;-59
2021/07/20 01:25:15;;;;;;;8.70;6.00;;;;;;;13.22;78.07;100378.53;93046;1208;84799;-59
2021/07/20 01:27:23;;;;;;;8.30;5.50;;;;;;;13.21;78.11;100382.30;93063;1203;75400;-59
2021/07/20 01:29:32;;;;;;;7.40;5.70;;;;;;;13.17;78.03;100376.45;93006;1208;81130;-58
2021/07/20 01:31:44;;;;;;;9.00;6.80;;;;;;;13.11;78.09;100384.56;93006;1203;68501;-58
2021/07/20 01:33:56;;;;;;;8.40;5.90;;;;;;;13.11;78.06;100388.12;93020;1208;69971;-58
2021/07/20 01:36:07;;;;;;;8.50;6.20;;;;;;;13.10;78.23;100385.63;93037;1208;85656;-59
2021/07/20 01:38:16;;;;;;;8.60;5.90;;;;;;;13.03;78.10;100382.86;93082;1208;75154;-59
2021/07/20 01:40:27;;;;;;;8.70;6.30;;;;;;;13.01;78.33;100382.23;93027;1203;81542;-58
2021/07/20 01:42:35;;;;;;;9.80;6.60;;;;;;;13.02;78.24;100378.46;93031;1214;68380;-58
2021/07/20 01:44:44;;;;;;;8.30;5.70;;;;;;;13.02;78.27;100378.46;93072;1208;70048;-58
2021/07/20 01:46:55;;;;;;;8.70;6.10;;;;;;;13.01;78.34;100371.39;93047;1208;86171;-58
2021/07/20 01:49:13;;;;;;;8.00;6.10;;;;;;;12.93;78.49;100371.58;93080;1214;74409;-58
2021/07/20 01:51:21;;;;;;;10.20;6.10;;;;;;;12.92;78.51;100375.32;93051;1208;81705;-60
2021/07/20 01:53:30;;;;;;;8.80;6.10;;;;;;;12.92;78.66;100376.16;93068;1208;65661;-59
2021/07/20 01:55:38;;;;;;;8.30;5.80;;;;;;;12.90;78.51;100371.98;93040;1208;69334;-58
2021/07/20 01:57:46;;;;;;;12.10;6.00;;;;;;;12.85;78.62;100366.34;93056;1208;85623;-58
2021/07/20 01:59:54;;;;;;;9.30;6.30;;;;;;;12.87;78.64;100375.10;93042;1208;74076;-58
2021/07/20 02:02:08;;;;;;;8.40;6.10;;;;;;;12.88;78.84;100382.21;93023;1208;81303;-59
2021/07/20 02:09:19;;;;;;;11.60;7.20;;;;;;;12.80;78.80;100376.97;93003;1208;87792;-58
2021/07/20 02:11:34;;;;;;;8.80;7.00;;;;;;;12.83;79.03;100384.67;93027;1215;76267;-58
2021/07/20 02:13:52;;;;;;;8.60;6.30;;;;;;;12.80;78.85;100375.08;93042;1208;79630;-59
2021/07/20 02:16:00;;;;;;;8.80;6.10;;;;;;;12.83;78.93;100376.54;93027;1208;66385;-58
2021/07/20 02:18:10;;;;;;;8.90;6.10;;;;;;;12.84;79.01;100378.22;93089;1208;68490;-58
2021/07/20 02:20:24;;;;;;;11.00;6.20;;;;;;;12.83;79.02;100373.83;93035;1208;84879;-57
2021/07/20 02:22:32;;;;;;;9.40;6.50;;;;;;;12.77;78.97;100374.67;93071;1208;74643;-58
2021/07/20 02:24:41;;;;;;;9.40;6.70;;;;;;;12.77;79.05;100377.38;93096;1208;81474;-59
2021/07/20 02:26:49;;;;;;;10.50;6.40;;;;;;;12.76;79.20;100375.70;93062;1206;67186;-59
2021/07/20 02:29:00;;;;;;;10.10;7.10;;;;;;;12.77;79.25;100390.94;93063;1208;69613;-59
2021/07/20 02:31:09;;;;;;;9.50;6.50;;;;;;;12.78;79.23;100388.00;93041;1208;86246;-58
2021/07/20 02:33:19;;;;;;;11.50;7.20;;;;;;;12.70;79.17;100385.48;93041;1208;75449;-58
2021/07/20 02:35:30;;;;;;;8.50;7.00;;;;;;;12.73;79.16;100390.50;93021;1207;81642;-59
2021/07/20 02:37:40;;;;;;;9.50;6.60;;;;;;;12.73;79.56;100392.36;93035;1214;69703;-59
2021/07/20 02:39:49;;;;;;;9.60;7.00;;;;;;;12.67;79.43;100385.88;93038;1208;69809;-59
2021/07/20 02:41:58;;;;;;;10.60;6.60;;;;;;;12.68;79.41;100387.56;93050;1202;86371;-60
2021/07/20 02:44:08;;;;;;;10.20;6.80;;;;;;;12.67;79.35;100390.45;93062;1208;76499;-60
2021/07/20 02:46:17;;;;;;;10.80;7.70;;;;;;;12.66;79.43;100395.04;93036;1208;81109;-59
2021/07/20 02:48:26;;;;;;;8.60;5.90;;;;;;;12.68;79.49;100400.27;93003;1208;68429;-57
2021/07/20 02:50:36;;;;;;;8.30;6.60;;;;;;;12.69;79.59;100399.25;93060;1208;70046;-57
2021/07/20 02:52:48;;;;;;;9.50;7.10;;;;;;;12.64;79.59;100397.13;93066;1208;85720;-57
2021/07/20 02:54:56;;;;;;;9.70;7.20;;;;;;;12.65;79.78;100401.52;93042;1208;74930;-58
2021/07/20 02:57:06;;;;;;;11.50;7.00;;;;;;;12.67;79.87;100401.30;93012;1213;82283;-57
2021/07/20 02:59:18;;;;;;;10.30;6.80;;;;;;;12.69;80.02;100400.06;93067;1206;68576;-57
2021/07/20 03:01:28;;;;;;;10.30;6.90;;;;;;;12.72;79.93;100398.81;93026;1207;67726;-58
2021/07/20 03:03:37;;;;;;;9.30;6.80;;;;;;;12.73;80.07;100400.50;93049;1202;86200;-58
2021/07/20 03:05:47;;;;;;;13.50;6.70;;;;;;;12.79;80.10;100407.83;93046;1208;74883;-59
2021/07/20 03:08:00;;;;;;;9.80;7.60;;;;;;;12.79;80.14;100405.95;93080;1208;81245;-59
2021/07/20 03:10:11;;;;;;;11.10;7.10;;;;;;;12.82;80.20;100407.42;93049;1213;67650;-60
2021/07/20 03:12:22;;;;;;;11.30;7.50;;;;;;;12.89;80.17;100410.97;93069;1208;67819;-60
2021/07/20 03:14:32;;;;;;;8.90;7.10;;;;;;;12.99;80.15;100414.96;93061;1208;86884;-58
2021/07/20 03:16:42;;;;;;;9.50;7.40;;;;;;;13.08;80.13;100415.65;93045;1201;75700;-58
2021/07/20 03:18:51;;;;;;;11.90;7.40;;;;;;;13.17;80.39;100414.42;93033;1206;79945;-59
2021/07/20 03:21:01;;;;;;;9.30;7.10;;;;;;;13.17;80.01;100414.42;93031;1208;68472;-59
2021/07/20 03:23:10;;;;;;;9.90;7.70;;;;;;;13.21;80.16;100414.86;93053;1208;69103;-60
2021/07/20 03:25:22;;;;;;;10.90;7.50;;;;;;;13.24;80.30;100417.97;93071;1208;85609;-60
2021/07/20 03:27:32;;;;;;;8.70;6.90;;;;;;;13.30;80.24;100419.02;93069;1208;75085;-59
2021/07/20 03:29:43;;;;;;;10.40;7.80;;;;;;;13.39;80.19;100417.80;93051;1208;81502;-60
2021/07/20 03:31:54;;;;;;;9.00;7.90;;;;;;;13.44;80.35;100416.13;93064;1208;65531;-60
2021/07/20 03:34:05;;;;;;;9.90;7.10;;;;;;;13.54;80.37;100413.83;93030;1208;70209;-59
2021/07/20 03:36:14;;;;;;;8.70;7.20;;;;;;;13.64;80.48;100413.43;93027;1208;86526;-59
2021/07/20 03:38:23;;;;;;;9.60;6.80;;;;;;;13.69;80.27;100410.08;93058;1208;75116;-59
2021/07/20 03:40:34;;;;;;;11.90;6.70;;;;;;;13.86;80.28;100411.33;93016;1207;81339;-59
2021/07/20 03:42:43;;;;;;;9.10;6.60;;;;;;;14.00;80.21;100419.27;93033;1208;66701;-58
2021/07/20 03:44:52;;;;;;;10.10;7.20;;;;;;;14.12;80.08;100408.56;93053;1208;68254;-58
2021/07/20 03:47:00;;;;;;;10.70;7.00;;;;;;;14.60;80.31;100418.09;93046;1214;85521;-58
2021/07/20 03:49:09;;;;;;;9.10;7.10;;;;;;;15.75;79.90;100412.39;93035;1212;75403;-58
2021/07/20 03:51:17;;;;;;;9.50;6.80;;;;;;;16.89;79.22;100415.36;93016;1208;81894;-58
2021/07/20 03:53:26;;;;;;;10.10;6.80;;;;;;;17.87;78.09;100415.81;93015;1208;65841;-60
2021/07/20 03:55:34;;;;;;;8.40;7.10;;;;;;;18.81;77.04;100406.47;93023;1208;67791;-60
2021/07/20 03:57:43;;;;;;;10.10;7.10;;;;;;;19.63;75.58;100404.19;93006;1208;85505;-60
2021/07/20 03:59:54;;;;;;;11.40;7.20;;;;;;;20.27;74.75;100402.77;93036;1208;74067;-60
2021/07/20 04:02:08;;;;;;;13.30;7.40;;;;;;;20.91;73.61;100398.38;93036;1208;81873;-60
2021/07/20 04:04:20;;;;;;;8.70;6.60;;;;;;;21.53;72.28;100407.89;93036;1208;67091;-60
2021/07/20 04:06:29;;;;;;;10.70;7.10;;;;;;;22.06;70.47;100412.46;93053;1208;69692;-60
2021/07/20 04:08:40;;;;;;;9.50;7.20;;;;;;;22.62;69.18;100397.12;93048;1206;86006;-61
2021/07/20 04:10:50;;;;;;;11.20;7.00;;;;;;;22.89;67.67;100400.56;93018;1207;74246;-61
2021/07/20 04:12:58;;;;;;;9.60;6.70;;;;;;;23.01;66.71;100405.02;93002;1208;80336;-60
2021/07/20 04:15:08;;;;;;;10.90;6.90;;;;;;;23.52;65.57;100404.05;93028;1208;65744;-60
2021/07/20 04:17:17;;;;;;;7.50;6.20;;;;;;;24.09;64.45;100412.06;93077;1207;69134;-60
2021/07/20 04:19:25;;;;;;;7.10;6.30;;;;;;;24.49;63.06;100403.72;93022;1208;86167;-60
2021/07/20 04:21:33;;;;;;;9.20;6.90;;;;;;;24.91;61.81;100397.80;93032;1208;74421;-60
2021/07/20 04:23:42;;;;;;;9.90;6.60;;;;;;;24.96;60.91;100396.94;93003;1206;80612;-59
2021/07/20 04:25:55;;;;;;;8.30;6.30;;;;;;;25.21;60.27;100403.16;92995;1208;66691;-58
2021/07/20 04:28:03;;;;;;;7.50;6.40;;;;;;;25.08;59.06;100397.41;93027;1208;68168;-58
2021/07/20 04:30:13;;;;;;;8.80;7.00;;;;;;;25.04;58.73;100399.94;93021;1208;85836;-59
2021/07/20 04:32:26;;;;;;;7.80;6.90;;;;;;;24.65;58.22;100396.20;93050;1208;76008;-59
2021/07/20 04:34:38;;;;;;;9.00;6.50;;;;;;;24.45;58.14;100397.09;92977;1208;81549;-59
2021/07/20 04:36:49;;;;;;;10.50;6.50;;;;;;;24.42;57.75;100402.38;93023;1208;65525;-59
2021/07/20 04:38:57;;;;;;;9.20;6.60;;;;;;;24.18;57.34;100396.61;93047;1208;68700;-59
2021/07/20 04:41:05;;;;;;;8.80;6.40;;;;;;;23.57;57.69;100406.80;93015;1208;84354;-59
2021/07/20 04:43:16;;;;;;;7.30;6.40;;;;;;;23.36;58.31;100405.09;93041;1208;73823;-60
2021/07/20 04:45:27;;;;;;;9.80;6.30;;;;;;;23.75;58.63;100403.52;93041;1208;80151;-58
2021/07/20 04:47:42;;;;;;;8.80;6.20;;;;;;;24.64;58.24;100405.59;93071;1206;67179;-58
2021/07/20 04:49:49;;;;;;;9.00;6.10;;;;;;;25.21;57.38;100410.63;93031;1208;68622;-59
2021/07/20 04:51:57;;;;;;;7.20;5.90;;;;;;;25.74;56.40;100415.25;93048;1208;85806;-59
2021/07/20 04:54:08;;;;;;;8.60;6.40;;;;;;;26.28;55.57;100423.40;93040;1208;74737;-59
2021/07/20 04:56:15;;;;;;;8.00;6.40;;;;;;;26.70;55.29;100417.09;93058;1208;81399;-59
2021/07/20 04:58:23;;;;;;;8.60;5.90;;;;;;;27.01;54.05;100411.20;93025;1208;66350;-59
2021/07/20 05:00:32;;;;;;;8.90;6.20;;;;;;;27.26;53.86;100417.23;93026;1208;70527;-58
2021/07/20 05:02:47;;;;;;;8.00;6.20;;;;;;;27.48;52.56;100422.22;93050;1208;84727;-58
2021/07/20 05:04:56;;;;;;;7.10;5.90;;;;;;;27.64;51.69;100415.30;93036;1208;74033;-59
2021/07/20 05:07:07;;;;;;;9.60;6.00;;;;;;;27.81;51.85;100417.53;93032;1214;82173;-59
2021/07/20 05:09:19;;;;;;;8.00;5.80;;;;;;;27.89;50.68;100414.90;93057;1208;67499;-59
2021/07/20 05:11:28;;;;;;;7.30;5.80;;;;;;;28.00;50.31;100418.32;93037;1208;68204;-59
2021/07/20 05:13:36;;;;;;;7.30;5.40;;;;;;;28.16;50.05;100422.51;93012;1208;84654;-59
2021/07/20 05:15:44;;;;;;;7.20;5.30;;;;;;;28.17;49.21;100421.39;93063;1208;74751;-60
2021/07/20 05:17:52;;;;;;;5.30;4.70;;;;;;;28.21;49.13;100419.63;92958;1208;81531;-60
2021/07/20 05:20:02;;;;;;;5.80;4.90;;;;;;;28.34;48.39;100418.03;93030;1208;65970;-60
2021/07/20 05:22:13;;;;;;;6.80;5.10;;;;;;;28.19;48.50;100419.13;93027;1208;67849;-59
2021/07/20 05:24:24;;;;;;;6.60;4.80;;;;;;;28.15;48.26;100420.88;93053;1214;86137;-59
2021/07/20 05:26:40;;;;;;;7.00;4.90;;;;;;;28.18;48.42;100422.22;93052;1208;74902;-58
2021/07/20 05:28:49;;;;;;;6.10;4.80;;;;;;;28.23;48.13;100417.40;93030;1208;81689;-58
2021/07/20 05:31:00;;;;;;;7.70;4.70;;;;;;;28.26;48.26;100419.56;93070;1208;68791;-58
2021/07/20 05:33:09;;;;;;;6.00;4.60;;;;;;;27.95;48.06;100423.97;93027;1208;68941;-58
2021/07/20 05:35:20;;;;;;;5.60;4.40;;;;;;;27.76;48.61;100414.84;93039;1208;85182;-58
2021/07/20 05:37:28;;;;;;;6.50;4.60;;;;;;;27.39;48.26;100422.03;93026;1208;73790;-67
2021/07/20 05:39:37;;;;;;;5.20;4.10;;;;;;;27.23;48.85;100425.33;93051;1208;80090;-58
2021/07/20 05:41:46;;;;;;;6.20;4.40;;;;;;;27.27;49.02;100415.30;93039;1208;65541;-59
2021/07/20 05:43:57;;;;;;;4.20;3.80;;;;;;;27.19;49.22;100418.73;93067;1202;69441;-60
2021/07/20 05:46:06;;;;;;;5.30;3.90;;;;;;;26.88;49.51;100423.86;93005;1208;86160;-60
2021/07/20 05:48:18;;;;;;;6.80;4.20;;;;;;;26.55;49.76;100425.60;93037;1208;73701;-60
2021/07/20 05:50:26;;;;;;;5.90;3.90;;;;;;;26.48;49.87;100427.08;93042;1208;80627;-58
2021/07/20 05:52:36;;;;;;;6.80;4.00;;;;;;;26.06;50.49;100434.11;93018;1208;66005;-58
2021/07/20 05:54:46;;;;;;;6.50;3.80;;;;;;;26.16;50.88;100434.03;93000;1203;68906;-58
2021/07/20 05:56:55;;;;;;;6.00;3.90;;;;;;;26.14;51.03;100419.66;93013;1208;85464;-58
2021/07/20 05:59:04;;;;;;;5.40;4.10;;;;;;;25.88;51.87;100432.02;93027;1208;74263;-58
2021/07/20 06:01:13;;;;;;;5.80;4.10;;;;;;;25.63;52.26;100429.45;92977;1208;81982;-58
2021/07/20 06:03:23;;;;;;;4.80;3.90;;;;;;;25.84;52.45;100425.44;93033;1214;66030;-59
2021/07/20 06:05:34;;;;;;;5.40;3.80;;;;;;;25.93;52.25;100425.64;93069;1208;68527;-59
2021/07/20 06:07:43;;;;;;;5.40;4.20;;;;;;;25.94;52.49;100425.34;93023;1214;86207;-58
2021/07/20 06:09:51;;;;;;;5.50;3.70;;;;;;;26.03;52.50;100420.00;93071;1208;73800;-60
2021/07/20 06:11:59;;;;;;;6.60;4.20;;;;;;;26.01;52.84;100420.31;93024;1213;80773;-60
2021/07/20 06:14:07;;;;;;;5.20;4.10;;;;;;;26.09;53.18;100416.91;93029;1207;65545;-59
2021/07/20 06:16:16;;;;;;;4.60;3.60;;;;;;;26.19;52.87;100419.61;93055;1208;68549;-60
2021/07/20 06:18:24;;;;;;;4.70;3.80;;;;;;;26.11;52.58;100422.14;93051;1208;86030;-60
2021/07/20 06:20:32;;;;;;;5.50;3.60;;;;;;;25.94;52.43;100419.80;93032;1208;74139;-59
2021/07/20 06:22:48;;;;;;;6.00;3.60;;;;;;;26.19;52.51;100422.38;93056;1208;81750;-58
2021/07/20 06:24:58;;;;;;;5.00;3.80;;;;;;;26.23;51.99;100422.63;93005;1208;65718;-59
2021/07/20 06:27:07;;;;;;;5.10;2.90;;;;;;;25.84;52.10;100408.83;93045;1208;68686;-59
2021/07/20 06:29:16;;;;;;;4.30;3.30;;;;;;;25.74;52.83;100411.66;93034;1215;86319;-58
2021/07/20 06:31:25;;;;;;;6.10;3.20;;;;;;;26.04;52.94;100422.47;93037;1208;74122;-58
2021/07/20 06:33:35;;;;;;;4.90;3.20;;;;;;;26.19;52.97;100416.84;92999;1208;80872;-58
2021/07/20 06:35:46;;;;;;;4.40;3.20;;;;;;;26.08;52.65;100418.02;93056;1208;66649;-57
2021/07/20 06:37:54;;;;;;;6.20;3.40;;;;;;;26.18;53.30;100420.71;93063;1203;69563;-57
2021/07/20 06:40:05;;;;;;;4.30;2.90;;;;;;;26.32;52.88;100424.45;93027;1208;85791;-58
2021/07/20 06:42:17;;;;;;;3.40;3.00;;;;;;;26.34;52.49;100424.18;93059;1208;75117;-58
2021/07/20 06:44:26;;;;;;;4.60;2.80;;;;;;;26.44;52.54;100418.52;92990;1208;80066;-59
2021/07/20 06:46:36;;;;;;;3.70;2.70;;;;;;;26.72;52.98;100405.73;93023;1208;66723;-58
2021/07/20 06:48:48;;;;;;;5.50;2.90;;;;;;;26.83;52.85;100412.84;93037;1208;69511;-58
2021/07/20 06:50:57;;;;;;;3.40;2.80;;;;;;;26.99;52.50;100414.29;93020;1208;86415;-63
2021/07/20 06:53:04;;;;;;;4.50;2.90;;;;;;;26.86;51.94;100415.02;93093;1208;73898;-63
2021/07/20 06:55:14;;;;;;;5.00;3.00;;;;;;;26.83;52.14;100415.61;93029;1213;81330;-64
2021/07/20 06:57:24;;;;;;;4.20;2.70;;;;;;;26.39;52.01;100415.81;93066;1214;66059;-64
2021/07/20 06:59:34;;;;;;;3.80;2.60;;;;;;;26.50;52.09;100410.98;93071;1208;68975;-64
2021/07/20 07:01:43;;;;;;;3.90;2.60;;;;;;;26.77;51.54;100416.75;93031;1208;85546;-63
2021/07/20 07:04:02;;;;;;;3.50;2.50;;;;;;;26.78;51.64;100413.70;93080;1203;74776;-60
2021/07/20 07:06:13;;;;;;;4.70;2.60;;;;;;;27.13;51.64;100409.66;93077;1208;82267;-60
2021/07/20 07:08:23;;;;;;;4.50;2.60;;;;;;;27.00;50.51;100421.50;93026;1208;65762;-60
2021/07/20 07:10:31;;;;;;;5.90;2.80;;;;;;;26.98;51.10;100412.63;93043;1208;68891;-60
2021/07/20 07:12:39;;;;;;;3.40;2.40;;;;;;;27.50;51.45;100418.02;93062;1208;86057;-60
2021/07/20 07:14:47;;;;;;;3.30;2.20;;;;;;;28.00;50.84;100412.77;93069;1208;75491;-59
2021/07/20 07:16:57;;;;;;;7.20;2.40;;;;;;;27.85;50.11;100411.09;93024;1208;81626;-62
2021/07/20 07:19:08;;;;;;;3.60;2.30;;;;;;;27.99;50.53;100405.58;93030;1214;65366;-60
2021/07/20 07:21:20;;;;;;;4.60;2.10;;;;;;;28.23;49.22;100408.23;93049;1208;68629;-60
2021/07/20 07:23:33;;;;;;;3.10;2.70;;;;;;;28.45;48.70;100395.30;93015;1208;86183;-60
2021/07/20 07:25:41;;;;;;;3.00;2.20;;;;;;;28.58;48.13;100397.25;93037;1208;74758;-61
2021/07/20 07:27:52;;;;;;;3.00;2.20;;;;;;;27.95;46.69;100391.47;93035;1208;80201;-61
2021/07/20 07:30:01;;;;;;;2.80;2.00;;;;;;;28.04;48.21;100394.41;93040;1208;65801;-61
2021/07/20 07:32:10;;;;;;;4.80;2.60;;;;;;;29.03;48.78;100391.91;93074;1208;68595;-61
2021/07/20 07:34:19;;;;;;;3.40;2.60;;;;;;;29.78;48.03;100392.91;93084;1208;86176;-61
2021/07/20 07:36:28;;;;;;;3.20;2.40;;;;;;;30.70;47.42;100399.70;93051;1208;74487;-60
2021/07/20 07:38:37;;;;;;;3.20;2.10;;;;;;;31.42;45.56;100397.27;93047;1208;82847;-60
2021/07/20 07:40:47;;;;;;;3.80;2.10;;;;;;;30.81;45.33;100401.88;93083;1202;66658;-61
2021/07/20 07:42:57;;;;;;;3.20;2.20;;;;;;;31.12;44.61;100403.80;93045;1208;69241;-61
2021/07/20 07:45:07;;;;;;;3.10;2.20;;;;;;;31.29;44.11;100401.00;93057;1206;86780;-61
2021/07/20 07:47:16;;;;;;;3.10;2.30;;;;;;;32.16;44.59;100391.48;93073;1208;75506;-62
2021/07/20 07:49:28;;;;;;;4.70;2.10;;;;;;;32.77;42.42;100401.31;93022;1208;82839;-61
2021/07/20 07:51:36;;;;;;;3.40;2.50;;;;;;;33.02;41.11;100398.35;93021;1208;65504;-60
2021/07/20 07:53:44;;;;;;;3.20;2.20;;;;;;;33.10;41.34;100391.91;93066;1208;69612;-59
2021/07/20 07:55:54;;;;;;;4.00;2.40;;;;;;;32.51;39.63;100402.22;93044;1203;85684;-60
2021/07/20 07:58:02;;;;;;;3.60;2.30;;;;;;;31.09;40.71;100405.27;93034;1208;75662;-61
2021/07/20 08:00:15;;;;;;;4.30;1.80;;;;;;;30.16;42.00;100407.28;93050;1208;80182;-60
2021/07/20 08:02:30;;;;;;;4.90;2.00;;;;;;;30.60;42.80;100414.75;93029;1208;66033;-61
2021/07/20 08:04:46;;;;;;;3.80;2.10;;;;;;;31.30;41.99;100411.03;93010;1208;69716;-61
2021/07/20 08:06:58;;;;;;;3.80;2.00;;;;;;;30.33;42.36;100406.55;93036;1208;85322;-62
2021/07/20 08:09:07;;;;;;;3.00;2.30;;;;;;;29.58;42.16;100409.31;93029;1208;75104;-61
2021/07/20 08:11:16;;;;;;;2.80;2.00;;;;;;;29.10;43.03;100414.55;93011;1208;80247;-61
2021/07/20 08:13:24;;;;;;;4.70;1.80;;;;;;;30.52;42.61;100407.17;93039;1206;65645;-61
2021/07/20 08:15:36;;;;;;;3.00;1.70;;;;;;;31.68;42.03;100406.48;93069;1202;68800;-61
2021/07/20 08:17:48;;;;;;;3.40;1.80;;;;;;;32.31;39.80;100404.91;93026;1208;85917;-61
2021/07/20 08:19:58;;;;;;;3.80;2.40;;;;;;;33.03;39.59;100397.20;93028;1208;75088;-61
2021/07/20 08:22:09;;;;;;;2.60;2.00;;;;;;;33.36;37.49;100404.91;93022;1208;82024;-62
2021/07/20 08:24:21;;;;;;;3.40;2.10;;;;;;;32.79;37.82;100399.82;93032;1207;65905;-61
2021/07/20 08:26:40;;;;;;;2.40;1.90;;;;;;;31.72;39.16;100401.06;93013;1208;67902;-61
2021/07/20 08:28:56;;;;;;;3.40;1.80;;;;;;;30.47;39.51;100407.31;93014;1208;87108;-61
2021/07/20 08:31:06;;;;;;;3.10;2.10;;;;;;;30.06;40.84;100412.30;93010;1208;74432;-60
2021/07/20 08:33:20;;;;;;;3.60;2.10;;;;;;;30.10;41.35;100416.11;93026;1203;81456;-59
2021/07/20 08:35:32;;;;;;;3.70;2.40;;;;;;;29.97;40.99;100408.66;92997;1206;65910;-61
2021/07/20 08:37:43;;;;;;;3.00;2.40;;;;;;;29.56;40.87;100414.35;93039;1208;68498;-61
2021/07/20 08:39:53;;;;;;;3.10;2.10;;;;;;;28.57;41.31;100409.50;93028;1203;86617;-60
2021/07/20 08:42:26;;;;;;;4.60;2.20;;;;;;;27.98;42.00;100415.03;93017;1208;74496;-60
2021/07/20 08:44:53;;;;;;;3.10;2.00;;;;;;;28.97;43.17;100404.27;93023;1208;80467;-61
2021/07/20 08:47:11;;;;;;;2.70;2.30;;;;;;;30.44;42.59;100407.95;92992;1208;65753;-61
2021/07/20 08:49:59;;;;;;;3.80;2.10;;;;;;;31.66;40.53;100403.20;93051;1207;68048;-62
2021/07/20 08:52:15;;;;;;;2.50;2.00;;;;;;;33.12;38.78;100400.81;93001;1214;86351;-59
2021/07/20 08:54:35;;;;;;;2.90;2.20;;;;;;;33.76;37.33;100397.70;93019;1208;74610;-59
2021/07/20 08:56:46;;;;;;;2.50;2.10;;;;;;;33.93;37.08;100405.92;93004;1215;81600;-59
2021/07/20 08:59:05;;;;;;;4.00;2.50;;;;;;;34.05;36.01;100400.36;93008;1206;65536;-60
2021/07/20 09:01:27;;;;;;;2.40;1.80;;;;;;;33.84;35.54;100394.78;93065;1208;68588;-60
2021/07/20 09:03:53;;;;;;;4.70;2.40;;;;;;;33.24;34.91;100392.47;92998;1208;85404;-59
2021/07/20 09:06:06;;;;;;;3.70;2.10;;;;;;;32.65;35.32;100393.63;93025;1208;75118;-59
2021/07/20 09:08:16;;;;;;;;;;;;;;;32.20;35.91;100398.03;93044;1208;80087;-59
2021/07/20 09:10:29;;;;;;;3.40;2.10;;;;;;;32.39;36.63;100398.47;93032;1208;66535;-59
2021/07/20 09:12:42;;;;;;;3.40;2.20;;;;;;;32.72;35.81;100391.12;93049;1208;69452;-59
2021/07/20 09:14:59;;;;;;;3.80;2.20;;;;;;;32.65;35.85;100385.23;93050;1208;87054;-59
2021/07/20 09:17:12;;;;;;;3.60;1.90;;;;;;;32.88;35.80;100386.58;93050;1213;74601;-60
2021/07/20 09:19:35;;;;;;;2.60;2.20;;;;;;;33.00;36.06;100386.68;93048;1208;81453;-60
2021/07/20 09:21:50;;;;;;;2.60;1.90;;;;;;;31.94;35.77;100390.52;93011;1208;66354;-60
2021/07/20 09:24:12;;;;;;;2.80;1.90;;;;;;;30.77;36.51;100386.92;93030;1208;69103;-60
2021/07/20 09:26:24;;;;;;;2.50;2.00;;;;;;;29.81;37.17;100397.89;92995;1208;84723;-59
2021/07/20 09:28:43;;;;;;;3.10;1.90;;;;;;;29.05;37.74;100393.23;93047;1204;75216;-59
2021/07/20 09:30:54;;;;;;;3.40;2.30;;;;;;;28.24;37.99;100391.24;93016;1208;81773;-60
2021/07/20 09:33:25;;;;;;;3.10;2.00;;;;;;;27.87;39.57;100391.34;93055;1208;65922;-59
2021/07/20 09:35:46;;;;;;;3.30;1.70;;;;;;;27.77;39.90;100383.98;93157;1208;68667;-60
2021/07/20 09:38:12;;;;;;;3.10;2.00;;;;;;;28.09;39.59;100386.81;93025;1208;85791;-59
2021/07/20 09:40:38;;;;;;;2.80;1.90;;;;;;;28.66;40.42;100377.11;93101;1208;74386;-60
2021/07/20 09:43:00;;;;;;;2.60;1.80;;;;;;;28.54;39.95;100367.62;93037;1208;80084;-60
2021/07/20 09:45:14;;;;;;;3.00;2.30;;;;;;;28.50;41.05;100375.73;93017;1208;67133;-61
2021/07/20 09:47:27;;;;;;;2.90;2.10;;;;;;;28.09;41.43;100377.64;93094;1208;69467;-60
2021/07/20 09:50:00;;;;;;;2.60;2.10;;;;;;;27.53;40.44;100378.56;93036;1208;86772;-62
2021/07/20 09:52:19;;;;;;;;;;;;;;;27.65;41.38;100377.27;93047;1208;75059;-61
2021/07/20 09:54:49;;;;;;;2.70;1.70;;;;;;;27.80;42.21;100366.73;93033;1208;81443;-59
2021/07/20 09:57:16;;;;;;;3.10;1.90;;;;;;;28.01;41.35;100362.48;93019;1208;65585;-61
2021/07/20 09:59:50;;;;;;;3.40;2.10;;;;;;;28.17;40.74;100365.00;93043;1214;68804;-60
2021/07/20 10:02:01;;;;;;;2.80;2.20;;;;;;;28.42;41.95;100357.00;93010;1208;86134;-60
2021/07/20 10:04:20;;;;;;;3.30;2.20;;;;;;;28.40;40.30;100362.05;93007;1208;74933;-59
2021/07/20 10:06:39;;;;;;;2.90;2.50;;;;;;;28.28;40.53;100361.72;93050;1208;80294;-61
2021/07/20 10:08:55;;;;;;;3.30;2.00;;;;;;;27.92;40.92;100360.70;93031;1207;67255;-59
2021/07/20 10:11:22;;;;;;;2.40;1.90;;;;;;;27.51;40.41;100366.12;93053;1208;68907;-60
2021/07/20 10:13:37;;;;;;;2.80;2.10;;;;;;;26.96;41.44;100353.88;93015;1208;86751;-60
2021/07/20 10:16:01;;;;;;;3.10;1.90;;;;;;;26.74;41.61;100362.73;93067;1208;73719;-59